Página principal
METAR-TAF:

METAR-TAF

Aeroportos :

Ouagadougou, Burkina Faso

latitude: 12-21N, longitude: 001-31W, altura: 316 m

Observação actual do tempo

O boletim foi feito há 59 minutos, às 14:00 UTC
Vento 6 kt de este, variando entre es-nordeste e sudeste
Temperatura 32°C
Humidade 14%
Pressão 1012 hPa
Visibilidade: 3500 m
poeira extensa

METAR: DFFD 161400Z 10006KT 070V130 3500 DU NSC 32/01 Q1012 NOSIG

Hora: 14:59 (14:59 UTC)

Previsão

O boletim foi feito há 3 horas e 59 minutos, às 11:00 UTC
Previsão válida de 16 às 12 UTC a 17 às 18 UTC
Vento 10 kt de este
Visibilidade: 3500 m
poeira extensa
Temporariamente
de 16 às 17 UTC a 16 às 21 UTC
Visibilidade: 2500 m
poeira extensa
Tornando-se
de 17 às 04 UTC a 17 às 06 UTC
Visibilidade: 2500 m
poeira extensa
Temporariamente
de 17 às 06 UTC a 17 às 11 UTC
Visibilidade: 1400 m
poeira extensa

TAF: DFFD 161100Z 1612/1718 09010KT 3500 DU NSC TEMPO 1617/1621 2500 DU BECMG 1704/1706 2500 DU TEMPO 1706/1711 1400 DU

Observações e previsões do tempo de mais de 4000 aeroportos (mensagens METAR e TAF).

As estações disponíveis são os pontos amarelos e vermelhos sobre o mapa.

Mova o rato sobre o mapa para ver o nome da estação.

Depois clique no ponto para visualizar as observações e previsões meteorológicas.

Para alterar o mapa : clique nos botões verdes com uma cruz preta para aumentar o zoom; no botão verde com uma pitada de zoom; ou nas setas verdes para mapas adjacentes.


METAR-TAF: